Time;durP1;ratioP1;P1;durP2;ratioP2;P2;SDS_P1;SDS_P2;PMS_P1;PMS_P2;Temp;Humidity;BMP_temperature;BMP_pressure;BME280_temperature;BME280_humidity;BME280_pressure;Samples;Min_cycle;Max_cycle;Signal;HPM_P1;HPM_P2
2021/09/24 05:57:25;;;;;;;5.72;4.78;;;;;;;;;;1063488;27;99993;-44
2021/09/24 05:57:56;;;;;;;7.28;4.43;;;;;;;;;;1042331;27;102392;-43
2021/09/24 05:58:27;;;;;;;7.40;4.22;;;;;;;;;;1044601;27;100091;-46
2021/09/24 05:58:58;;;;;;;8.07;4.40;;;;;;;;;;1043124;27;100218;-45
2021/09/24 05:59:29;;;;;;;8.15;4.10;;;;;;;;;;1044979;27;99995;-45
2021/09/24 05:59:59;;;;;;;5.40;4.30;;;;;;;;;;1042898;27;100758;-44
2021/09/24 06:00:30;;;;;;;5.07;3.92;;;;;;;;;;1040468;28;99964;-44
2021/09/24 06:01:01;;;;;;;5.20;4.18;;;;;;;;;;1038856;28;101479;-45
2021/09/24 06:01:32;;;;;;;4.95;4.40;;;;;;;;;;1040785;28;99964;-45
2021/09/24 06:02:03;;;;;;;5.28;4.57;;;;;;;;;;1030993;28;100781;-43
2021/09/24 06:02:34;;;;;;;6.13;4.25;;;;;;;;;;1040463;28;100313;-47
2021/09/24 06:03:06;;;;;;;8.63;4.05;;;;;;;;;;1038643;28;101414;-43
2021/09/24 06:03:37;;;;;;;9.75;4.18;;;;;;;;;;1040980;27;100091;-43
2021/09/24 06:04:08;;;;;;;4.68;3.97;;;;;;;;;;1042603;27;101234;-44
2021/09/24 06:04:38;;;;;;;5.07;4.20;;;;;;;;;;1040639;28;100016;-44
2021/09/24 06:05:10;;;;;;;6.60;4.45;;;;;;;;;;1038904;28;100423;-48
2021/09/24 06:05:40;;;;;;;6.45;4.15;;;;;;;;;;1040882;27;99948;-46
2021/09/24 06:06:11;;;;;;;4.68;4.10;;;;;;;;;;1043022;27;101345;-46
2021/09/24 06:06:43;;;;;;;4.45;4.03;;;;;;;;;;1040356;28;99993;-44
2021/09/24 06:07:13;;;;;;;5.53;3.63;;;;;;;;;;1034753;28;100910;-44
2021/09/24 06:07:45;;;;;;;7.90;3.88;;;;;;;;;;1036577;28;99946;-43
2021/09/24 06:08:16;;;;;;;6.03;4.18;;;;;;;;;;1031167;28;101010;-48
2021/09/24 06:08:50;;;;;;;6.35;4.20;;;;;;;;;;1036721;28;99148;-49
2021/09/24 06:09:20;;;;;;;7.63;3.80;;;;;;;;;;1039296;28;100604;-48
2021/09/24 06:09:51;;;;;;;7.63;3.95;;;;;;;;;;1041131;27;99887;-44
2021/09/24 06:10:23;;;;;;;6.63;4.13;;;;;;;;;;1039063;28;100398;-43
2021/09/24 06:10:55;;;;;;;6.60;4.00;;;;;;;;;;1040511;28;100261;-44
2021/09/24 06:11:25;;;;;;;6.07;3.97;;;;;;;;;;1039348;28;100403;-44
2021/09/24 06:11:56;;;;;;;8.65;4.30;;;;;;;;;;1041045;27;100012;-44
2021/09/24 06:12:27;;;;;;;5.38;4.18;;;;;;;;;;1043369;27;100364;-44
2021/09/24 06:12:58;;;;;;;5.68;4.00;;;;;;;;;;1044503;27;99988;-44
2021/09/24 06:13:29;;;;;;;5.03;4.00;;;;;;;;;;1043242;27;100813;-45
2021/09/24 06:14:00;;;;;;;7.32;4.10;;;;;;;;;;1044520;27;100033;-44
2021/09/24 06:14:31;;;;;;;4.25;3.47;;;;;;;;;;1038859;28;100887;-44
2021/09/24 06:15:03;;;;;;;4.20;3.80;;;;;;;;;;1035884;28;100007;-44
2021/09/24 06:15:34;;;;;;;6.82;4.10;;;;;;;;;;1034794;28;100542;-45
2021/09/24 06:16:06;;;;;;;4.63;4.10;;;;;;;;;;1036676;28;100082;-46
2021/09/24 06:16:38;;;;;;;5.50;3.90;;;;;;;;;;1039857;27;101060;-44
2021/09/24 06:17:11;;;;;;;5.97;4.60;;;;;;;;;;1044488;27;100068;-45
2021/09/24 06:17:42;;;;;;;8.45;4.35;;;;;;;;;;1043544;27;100469;-44
2021/09/24 06:18:13;;;;;;;4.80;4.30;;;;;;;;;;1040490;28;100086;-44
2021/09/24 06:18:44;;;;;;;6.15;4.35;;;;;;;;;;1039081;28;100432;-44
2021/09/24 06:19:15;;;;;;;6.88;3.70;;;;;;;;;;1040167;28;100144;-45
2021/09/24 06:19:46;;;;;;;4.15;3.70;;;;;;;;;;1039562;27;100422;-45
2021/09/24 06:20:18;;;;;;;7.40;4.10;;;;;;;;;;1040068;28;100118;-47
2021/09/24 06:20:49;;;;;;;7.68;3.97;;;;;;;;;;1034853;28;100614;-44
2021/09/24 06:21:21;;;;;;;5.20;3.83;;;;;;;;;;1036347;28;100110;-45
2021/09/24 06:21:52;;;;;;;6.18;4.25;;;;;;;;;;1035524;28;100390;-45
2021/09/24 06:22:24;;;;;;;6.75;4.03;;;;;;;;;;1040949;27;100122;-49
2021/09/24 06:22:55;;;;;;;5.13;3.72;;;;;;;;;;1038639;28;101743;-45
2021/09/24 06:23:26;;;;;;;4.63;4.13;;;;;;;;;;1040153;28;100066;-45
2021/09/24 06:23:57;;;;;;;5.60;3.85;;;;;;;;;;1030420;28;100397;-43
2021/09/24 06:24:28;;;;;;;4.75;3.80;;;;;;;;;;1028006;28;100225;-44
2021/09/24 06:24:59;;;;;;;4.43;3.47;;;;;;;;;;1026714;28;100511;-44
2021/09/24 06:25:30;;;;;;;4.30;3.90;;;;;;;;;;1028207;28;100142;-43
2021/09/24 06:26:00;;;;;;;4.55;3.85;;;;;;;;;;1035289;28;100383;-44
2021/09/24 06:26:31;;;;;;;5.88;3.90;;;;;;;;;;1040524;28;100323;-43
2021/09/24 06:27:03;;;;;;;5.65;4.28;;;;;;;;;;1034675;28;101613;-44
2021/09/24 06:27:36;;;;;;;4.50;4.10;;;;;;;;;;1036383;28;100152;-44
2021/09/24 06:28:07;;;;;;;4.97;4.43;;;;;;;;;;1039015;28;101569;-44
2021/09/24 06:28:38;;;;;;;6.35;3.90;;;;;;;;;;1040875;27;100118;-45
2021/09/24 06:29:08;;;;;;;12.18;4.30;;;;;;;;;;1043273;27;100603;-44
2021/09/24 06:29:39;;;;;;;6.32;4.05;;;;;;;;;;1044721;27;100006;-45
2021/09/24 06:30:14;;;;;;;4.85;4.30;;;;;;;;;;1055789;27;100545;-50
2021/09/24 06:30:44;;;;;;;7.95;4.65;;;;;;;;;;1053168;27;100138;-44
2021/09/24 06:31:15;;;;;;;8.57;4.25;;;;;;;;;;1047527;27;100395;-44
2021/09/24 06:31:46;;;;;;;5.85;4.53;;;;;;;;;;1049106;27;100190;-46
2021/09/24 06:32:17;;;;;;;6.97;4.18;;;;;;;;;;1047784;27;101271;-45
2021/09/24 06:32:49;;;;;;;4.40;4.00;;;;;;;;;;1053399;27;99973;-44
2021/09/24 06:33:20;;;;;;;6.68;4.15;;;;;;;;;;1056130;27;101562;-46
2021/09/24 06:33:51;;;;;;;6.00;4.10;;;;;;;;;;1057893;27;100000;-44
2021/09/24 06:34:22;;;;;;;6.38;4.28;;;;;;;;;;1052043;27;100480;-44
2021/09/24 06:34:54;;;;;;;4.90;4.15;;;;;;;;;;1053083;27;100201;-44
2021/09/24 06:35:25;;;;;;;8.60;4.45;;;;;;;;;;1051753;27;100898;-45
2021/09/24 06:35:56;;;;;;;6.68;4.55;;;;;;;;;;1053475;27;100052;-44
2021/09/24 06:36:26;;;;;;;6.28;4.05;;;;;;;;;;1056611;27;100441;-44
2021/09/24 06:36:57;;;;;;;5.72;3.80;;;;;;;;;;1057865;27;100048;-44
2021/09/24 06:37:28;;;;;;;5.60;4.32;;;;;;;;;;1056384;27;100737;-44
2021/09/24 06:37:59;;;;;;;5.65;4.10;;;;;;;;;;1057752;27;99893;-44
2021/09/24 06:38:30;;;;;;;11.00;4.05;;;;;;;;;;1056600;27;100143;-44
2021/09/24 06:39:03;;;;;;;4.93;3.92;;;;;;;;;;1057922;27;99913;-44
2021/09/24 06:39:34;;;;;;;6.43;3.80;;;;;;;;;;1056026;27;101417;-44
2021/09/24 06:40:07;;;;;;;6.05;4.15;;;;;;;;;;1057855;27;100400;-44
2021/09/24 06:40:38;;;;;;;5.63;4.32;;;;;;;;;;1046773;27;100598;-44
2021/09/24 06:41:09;;;;;;;7.28;4.30;;;;;;;;;;1048946;27;99697;-44
2021/09/24 06:41:39;;;;;;;9.10;4.93;;;;;;;;;;1046731;27;100233;-44
2021/09/24 06:42:10;;;;;;;7.32;4.00;;;;;;;;;;1049224;27;99922;-44
2021/09/24 06:42:41;;;;;;;4.88;4.13;;;;;;;;;;1051801;27;100788;-44
2021/09/24 06:43:12;;;;;;;5.32;4.05;;;;;;;;;;1053505;27;99966;-44
2021/09/24 06:43:43;;;;;;;6.43;3.90;;;;;;;;;;1051552;27;100356;-44
2021/09/24 06:44:15;;;;;;;8.98;3.90;;;;;;;;;;1053805;27;100062;-44
2021/09/24 06:44:46;;;;;;;6.53;4.20;;;;;;;;;;1056396;27;100495;-45
2021/09/24 06:45:17;;;;;;;4.50;4.03;;;;;;;;;;1058074;27;100092;-45
2021/09/24 06:45:47;;;;;;;6.47;4.05;;;;;;;;;;1056098;27;100587;-46
2021/09/24 06:46:18;;;;;;;6.72;4.28;;;;;;;;;;1058049;27;99886;-46
2021/09/24 06:46:49;;;;;;;5.47;4.63;;;;;;;;;;1056423;27;100549;-47
2021/09/24 06:47:20;;;;;;;7.50;4.60;;;;;;;;;;1058033;27;99869;-44
2021/09/24 06:47:52;;;;;;;5.20;4.47;;;;;;;;;;1055985;27;101406;-44
2021/09/24 06:48:23;;;;;;;5.55;4.00;;;;;;;;;;1048890;27;100357;-45
2021/09/24 06:48:54;;;;;;;5.00;4.40;;;;;;;;;;1043306;27;100454;-47
2021/09/24 06:49:25;;;;;;;8.35;4.85;;;;;;;;;;1044376;27;99868;-45
2021/09/24 06:49:56;;;;;;;4.93;4.30;;;;;;;;;;1043852;27;100511;-44
2021/09/24 06:50:26;;;;;;;7.60;3.92;;;;;;;;;;1053097;27;99876;-44
2021/09/24 06:50:59;;;;;;;4.80;4.32;;;;;;;;;;1051494;27;100428;-46
2021/09/24 06:51:30;;;;;;;4.65;4.10;;;;;;;;;;1052670;27;99999;-45
2021/09/24 06:52:01;;;;;;;8.07;4.65;;;;;;;;;;1051610;27;100538;-45
2021/09/24 06:52:32;;;;;;;6.28;4.65;;;;;;;;;;1053040;27;99908;-44
2021/09/24 06:53:04;;;;;;;5.65;4.05;;;;;;;;;;1052265;27;100405;-44
2021/09/24 06:53:34;;;;;;;6.93;3.83;;;;;;;;;;1052976;27;99508;-44
2021/09/24 06:54:05;;;;;;;7.05;4.68;;;;;;;;;;1051655;27;100440;-47
2021/09/24 06:54:37;;;;;;;7.03;4.50;;;;;;;;;;1052799;27;99974;-48
2021/09/24 06:55:08;;;;;;;6.60;4.30;;;;;;;;;;1047796;27;100945;-44
2021/09/24 06:55:39;;;;;;;5.43;4.10;;;;;;;;;;1053095;27;99877;-44
2021/09/24 06:56:11;;;;;;;9.10;4.60;;;;;;;;;;1051524;27;100489;-45
2021/09/24 06:56:41;;;;;;;6.18;4.28;;;;;;;;;;1052422;27;99737;-44
2021/09/24 06:57:12;;;;;;;4.80;4.10;;;;;;;;;;1051156;27;100430;-44
2021/09/24 06:57:43;;;;;;;8.80;4.63;;;;;;;;;;1053456;27;100059;-44
2021/09/24 06:58:14;;;;;;;5.35;4.07;;;;;;;;;;1051670;27;100350;-44
2021/09/24 06:58:45;;;;;;;6.28;4.07;;;;;;;;;;1052942;27;100102;-45
2021/09/24 06:59:17;;;;;;;6.20;4.30;;;;;;;;;;1051684;27;100551;-44
2021/09/24 06:59:47;;;;;;;7.63;4.05;;;;;;;;;;1053253;27;100045;-45
2021/09/24 07:00:19;;;;;;;7.00;4.45;;;;;;;;;;1056275;27;100840;-44
2021/09/24 07:00:49;;;;;;;8.77;4.40;;;;;;;;;;1057287;27;99885;-45
2021/09/24 07:01:20;;;;;;;5.72;4.35;;;;;;;;;;1051200;27;101640;-48
2021/09/24 07:01:51;;;;;;;4.10;3.78;;;;;;;;;;1048647;27;99923;-49
2021/09/24 07:02:22;;;;;;;11.45;4.38;;;;;;;;;;1047524;27;100187;-48
2021/09/24 07:02:53;;;;;;;5.00;4.13;;;;;;;;;;1048864;27;100281;-50
2021/09/24 07:03:24;;;;;;;5.85;4.20;;;;;;;;;;1052139;27;100740;-44
2021/09/24 07:03:54;;;;;;;7.10;4.50;;;;;;;;;;1057531;27;99878;-51
2021/09/24 07:04:25;;;;;;;7.22;4.78;;;;;;;;;;1038438;28;100644;-43
2021/09/24 07:04:56;;;;;;;7.15;4.07;;;;;;;;;;1039825;28;99601;-43
2021/09/24 07:05:27;;;;;;;8.48;4.47;;;;;;;;;;1038753;28;100793;-44
2021/09/24 07:05:58;;;;;;;6.20;4.28;;;;;;;;;;1040691;27;99938;-44
2021/09/24 07:06:29;;;;;;;8.30;4.40;;;;;;;;;;1056233;27;100458;-44
2021/09/24 07:07:00;;;;;;;8.68;4.45;;;;;;;;;;1057226;27;100038;-44
2021/09/24 07:07:31;;;;;;;7.53;4.32;;;;;;;;;;1056331;27;100390;-44
2021/09/24 07:08:02;;;;;;;11.63;4.88;;;;;;;;;;1057244;27;99920;-45
2021/09/24 07:08:32;;;;;;;6.10;4.50;;;;;;;;;;1049811;27;102636;-44
2021/09/24 07:09:04;;;;;;;12.20;4.40;;;;;;;;;;1049693;27;99955;-45
2021/09/24 07:09:36;;;;;;;8.48;5.32;;;;;;;;;;1048882;27;99964;-48
2021/09/24 07:10:08;;;;;;;6.18;4.40;;;;;;;;;;1050492;27;100022;-45
2021/09/24 07:10:39;;;;;;;10.68;5.30;;;;;;;;;;1053176;27;101618;-45
2021/09/24 07:11:10;;;;;;;9.68;4.60;;;;;;;;;;1053890;27;99970;-45
2021/09/24 07:11:42;;;;;;;12.70;5.07;;;;;;;;;;1053410;27;100127;-48
2021/09/24 07:12:13;;;;;;;13.82;4.82;;;;;;;;;;1054565;27;100353;-46
2021/09/24 07:12:44;;;;;;;9.90;5.00;;;;;;;;;;1053370;27;100421;-46
2021/09/24 07:13:15;;;;;;;5.97;4.57;;;;;;;;;;1054463;27;99893;-47
2021/09/24 07:13:45;;;;;;;10.27;5.30;;;;;;;;;;1050937;27;101372;-47
2021/09/24 07:14:17;;;;;;;12.57;5.43;;;;;;;;;;1052073;27;100132;-45
2021/09/24 07:14:48;;;;;;;9.77;5.03;;;;;;;;;;1051096;27;101672;-45
2021/09/24 07:15:19;;;;;;;12.10;5.10;;;;;;;;;;1054500;27;100029;-46
2021/09/24 07:15:50;;;;;;;15.05;4.80;;;;;;;;;;1046783;27;100362;-47
2021/09/24 07:16:21;;;;;;;16.38;4.90;;;;;;;;;;1045795;27;99277;-46
2021/09/24 07:16:52;;;;;;;10.73;4.75;;;;;;;;;;1044292;27;101508;-45
2021/09/24 07:17:22;;;;;;;10.18;5.68;;;;;;;;;;1045839;27;100163;-46
2021/09/24 07:17:53;;;;;;;10.77;5.15;;;;;;;;;;1049448;27;100821;-46
2021/09/24 07:18:24;;;;;;;8.93;4.70;;;;;;;;;;1052618;27;100056;-46
2021/09/24 07:18:55;;;;;;;11.23;5.20;;;;;;;;;;1049905;27;100778;-46
2021/09/24 07:19:27;;;;;;;13.27;4.85;;;;;;;;;;1054370;27;100158;-45
2021/09/24 07:19:59;;;;;;;12.55;4.80;;;;;;;;;;1052709;27;100762;-46
2021/09/24 07:20:29;;;;;;;11.10;5.32;;;;;;;;;;1050348;27;99868;-50
2021/09/24 07:21:00;;;;;;;12.38;5.22;;;;;;;;;;1048876;27;101674;-46
2021/09/24 07:21:32;;;;;;;11.02;5.63;;;;;;;;;;1049980;27;100309;-47
2021/09/24 07:22:03;;;;;;;9.65;5.70;;;;;;;;;;1053347;27;100590;-46
2021/09/24 07:22:34;;;;;;;14.82;5.38;;;;;;;;;;1052489;27;100050;-51
2021/09/24 07:23:05;;;;;;;9.57;5.93;;;;;;;;;;1049096;27;100574;-46
2021/09/24 07:23:36;;;;;;;13.77;6.15;;;;;;;;;;1049855;27;100241;-46
2021/09/24 07:24:07;;;;;;;14.65;6.03;;;;;;;;;;1043792;27;100820;-46
2021/09/24 07:24:38;;;;;;;10.32;5.75;;;;;;;;;;1046943;27;100153;-46
2021/09/24 07:25:09;;;;;;;19.45;5.90;;;;;;;;;;1046891;27;102292;-45
2021/09/24 07:25:40;;;;;;;6.93;5.20;;;;;;;;;;1044389;27;100378;-44
2021/09/24 07:26:11;;;;;;;9.95;5.30;;;;;;;;;;1044267;27;100515;-44
2021/09/24 07:26:42;;;;;;;16.75;5.93;;;;;;;;;;1044800;27;101069;-45
2021/09/24 07:27:12;;;;;;;13.68;6.10;;;;;;;;;;1039904;27;101603;-44
2021/09/24 07:27:43;;;;;;;16.98;6.18;;;;;;;;;;1040076;28;100221;-46
2021/09/24 07:28:15;;;;;;;21.42;5.88;;;;;;;;;;1039676;28;100427;-47
2021/09/24 07:28:46;;;;;;;11.75;5.70;;;;;;;;;;1040699;27;100175;-45
2021/09/24 07:29:17;;;;;;;11.52;5.60;;;;;;;;;;1037391;28;102248;-45
2021/09/24 07:29:49;;;;;;;11.98;5.80;;;;;;;;;;1039565;28;100551;-45
2021/09/24 07:30:20;;;;;;;9.95;5.88;;;;;;;;;;1035294;28;100803;-45
2021/09/24 07:30:51;;;;;;;19.00;6.55;;;;;;;;;;1037925;27;100020;-45
2021/09/24 07:31:23;;;;;;;7.22;5.10;;;;;;;;;;1046085;27;100674;-47
2021/09/24 07:31:54;;;;;;;10.95;6.07;;;;;;;;;;1044416;27;100860;-46
2021/09/24 07:32:25;;;;;;;8.85;5.65;;;;;;;;;;1048333;27;100628;-45
2021/09/24 07:32:56;;;;;;;11.45;5.82;;;;;;;;;;1048165;27;101196;-45
2021/09/24 07:33:27;;;;;;;13.52;6.03;;;;;;;;;;1048460;27;100909;-48
2021/09/24 07:33:58;;;;;;;15.38;6.32;;;;;;;;;;1048892;27;101151;-47
2021/09/24 07:34:28;;;;;;;8.40;5.53;;;;;;;;;;1050664;27;100403;-46
2021/09/24 07:34:59;;;;;;;16.40;5.90;;;;;;;;;;1049306;27;99465;-46
2021/09/24 07:35:30;;;;;;;9.30;5.60;;;;;;;;;;1052281;27;100758;-43
2021/09/24 07:36:01;;;;;;;12.02;5.57;;;;;;;;;;1053073;27;100051;-46
2021/09/24 07:36:33;;;;;;;7.43;5.63;;;;;;;;;;1048280;27;100486;-44
2021/09/24 07:37:04;;;;;;;11.35;5.85;;;;;;;;;;1049789;27;100228;-46
2021/09/24 07:37:34;;;;;;;11.23;6.13;;;;;;;;;;1035569;28;100422;-45
2021/09/24 07:38:05;;;;;;;10.05;5.63;;;;;;;;;;1035880;28;100068;-45
2021/09/24 07:38:36;;;;;;;13.57;5.38;;;;;;;;;;1031737;28;99987;-44
2021/09/24 07:39:07;;;;;;;11.30;5.82;;;;;;;;;;1033844;27;99959;-45
2021/09/24 07:39:40;;;;;;;12.68;5.63;;;;;;;;;;1039391;28;100345;-46
2021/09/24 07:40:12;;;;;;;13.45;5.80;;;;;;;;;;1041144;27;100111;-47
2021/09/24 07:40:43;;;;;;;18.05;6.07;;;;;;;;;;1044419;27;100621;-44
2021/09/24 07:41:16;;;;;;;15.52;5.68;;;;;;;;;;1037902;27;99882;-44
2021/09/24 07:41:46;;;;;;;13.50;5.90;;;;;;;;;;1044313;27;100476;-47
2021/09/24 07:42:18;;;;;;;13.48;5.55;;;;;;;;;;1044594;27;100298;-45
2021/09/24 07:42:48;;;;;;;8.95;5.10;;;;;;;;;;1044927;27;100628;-45
2021/09/24 07:43:19;;;;;;;15.98;5.63;;;;;;;;;;1049865;27;99890;-46
2021/09/24 07:43:52;;;;;;;14.40;6.03;;;;;;;;;;1047466;27;101272;-45
2021/09/24 07:44:23;;;;;;;10.05;5.57;;;;;;;;;;1048461;27;100260;-45
2021/09/24 07:44:54;;;;;;;10.60;5.60;;;;;;;;;;1048957;27;101787;-45
2021/09/24 07:45:25;;;;;;;11.90;5.70;;;;;;;;;;1052246;27;99923;-45
2021/09/24 07:45:56;;;;;;;14.80;6.60;;;;;;;;;;1049642;27;100469;-47
2021/09/24 07:46:29;;;;;;;10.55;5.50;;;;;;;;;;1049617;27;100443;-48
2021/09/24 07:47:01;;;;;;;18.70;5.85;;;;;;;;;;1048701;27;100850;-47
2021/09/24 07:47:32;;;;;;;14.05;6.10;;;;;;;;;;1050141;27;99974;-45
2021/09/24 07:48:04;;;;;;;15.10;6.13;;;;;;;;;;1049135;27;100492;-45
2021/09/24 07:48:35;;;;;;;12.25;5.32;;;;;;;;;;1049838;27;100056;-45
2021/09/24 07:49:06;;;;;;;14.50;5.65;;;;;;;;;;1049816;27;100517;-45
2021/09/24 07:49:37;;;;;;;13.35;6.05;;;;;;;;;;1051631;27;100117;-46
2021/09/24 07:50:08;;;;;;;17.92;6.10;;;;;;;;;;1051659;27;100580;-45
2021/09/24 07:50:39;;;;;;;9.55;5.53;;;;;;;;;;1054324;27;100137;-46
2021/09/24 07:51:10;;;;;;;10.23;5.97;;;;;;;;;;1039632;28;100991;-47
2021/09/24 07:51:41;;;;;;;8.27;5.18;;;;;;;;;;1040852;28;99919;-46
2021/09/24 07:52:12;;;;;;;10.10;5.90;;;;;;;;;;1039809;28;100654;-45
2021/09/24 07:52:43;;;;;;;11.43;6.13;;;;;;;;;;1037565;27;100312;-45
2021/09/24 07:53:14;;;;;;;10.95;5.65;;;;;;;;;;1035612;28;100485;-45
2021/09/24 07:53:45;;;;;;;11.73;5.93;;;;;;;;;;1032362;28;99924;-45
2021/09/24 07:54:16;;;;;;;8.77;5.03;;;;;;;;;;1027535;28;103141;-44
2021/09/24 07:54:46;;;;;;;11.32;5.82;;;;;;;;;;1033226;28;100324;-48
2021/09/24 07:55:17;;;;;;;11.15;5.97;;;;;;;;;;1036291;27;100393;-50
2021/09/24 07:55:48;;;;;;;12.43;5.78;;;;;;;;;;1044495;27;100162;-45
2021/09/24 07:56:19;;;;;;;17.05;6.20;;;;;;;;;;1044521;27;100337;-45
2021/09/24 07:56:50;;;;;;;14.50;5.53;;;;;;;;;;1049408;27;99985;-47
2021/09/24 07:57:22;;;;;;;12.48;6.05;;;;;;;;;;1053096;27;100456;-48
2021/09/24 07:57:56;;;;;;;9.07;5.35;;;;;;;;;;1054450;27;100277;-46
2021/09/24 07:58:26;;;;;;;9.05;5.18;;;;;;;;;;1049965;27;100538;-45
2021/09/24 07:58:57;;;;;;;8.70;5.65;;;;;;;;;;1049920;27;100162;-45
2021/09/24 07:59:28;;;;;;;10.23;5.85;;;;;;;;;;1049085;27;100377;-48
2021/09/24 07:59:59;;;;;;;10.57;5.90;;;;;;;;;;1049929;27;100054;-44
2021/09/24 08:00:30;;;;;;;12.35;5.57;;;;;;;;;;1048810;27;101323;-50
2021/09/24 08:01:01;;;;;;;14.07;6.25;;;;;;;;;;1049896;27;100309;-46
2021/09/24 08:01:32;;;;;;;8.20;5.60;;;;;;;;;;1049037;27;100427;-46
2021/09/24 08:02:04;;;;;;;13.75;5.53;;;;;;;;;;1049763;27;100407;-50
2021/09/24 08:02:35;;;;;;;10.98;5.88;;;;;;;;;;1049031;27;100534;-45
2021/09/24 08:03:06;;;;;;;8.13;5.22;;;;;;;;;;1049787;27;100221;-49
2021/09/24 08:03:38;;;;;;;7.65;5.63;;;;;;;;;;1048761;27;101424;-44
2021/09/24 08:04:09;;;;;;;12.75;5.85;;;;;;;;;;1050286;27;100020;-46
2021/09/24 08:04:40;;;;;;;11.90;5.70;;;;;;;;;;1039582;28;100828;-48
2021/09/24 08:05:11;;;;;;;11.48;6.05;;;;;;;;;;1040918;28;99967;-46
2021/09/24 08:05:41;;;;;;;11.00;5.22;;;;;;;;;;1035317;28;101018;-46
2021/09/24 08:06:14;;;;;;;9.93;5.95;;;;;;;;;;1037214;28;99970;-49
2021/09/24 08:06:46;;;;;;;9.13;5.35;;;;;;;;;;1040015;28;100383;-45
2021/09/24 08:07:17;;;;;;;11.43;5.57;;;;;;;;;;1042146;27;100455;-48
2021/09/24 08:07:47;;;;;;;8.88;5.40;;;;;;;;;;1044519;27;100484;-46
2021/09/24 08:08:18;;;;;;;10.25;6.07;;;;;;;;;;1041313;28;99805;-46
2021/09/24 08:08:49;;;;;;;12.50;5.60;;;;;;;;;;1039987;28;100716;-46
2021/09/24 08:09:20;;;;;;;12.90;5.28;;;;;;;;;;1041488;27;99881;-45
2021/09/24 08:09:51;;;;;;;10.50;5.97;;;;;;;;;;1031601;28;100298;-45
2021/09/24 08:10:24;;;;;;;10.38;5.97;;;;;;;;;;1039519;28;100413;-49
2021/09/24 08:10:55;;;;;;;7.22;5.13;;;;;;;;;;1039753;28;100392;-48
2021/09/24 08:11:26;;;;;;;11.88;5.32;;;;;;;;;;1042367;27;100148;-52
2021/09/24 08:11:57;;;;;;;10.65;5.22;;;;;;;;;;1048865;27;100344;-47
2021/09/24 08:12:28;;;;;;;9.05;5.35;;;;;;;;;;1050232;27;100085;-46
2021/09/24 08:12:59;;;;;;;10.38;5.65;;;;;;;;;;1048875;27;100439;-49
2021/09/24 08:13:30;;;;;;;8.30;5.50;;;;;;;;;;1049980;27;99238;-50
2021/09/24 08:14:01;;;;;;;15.82;5.57;;;;;;;;;;1048813;27;100370;-47
2021/09/24 08:14:33;;;;;;;14.20;5.43;;;;;;;;;;1049926;27;100109;-52
2021/09/24 08:15:06;;;;;;;9.10;5.40;;;;;;;;;;1048571;27;101720;-49
2021/09/24 08:15:42;;;;;;;10.75;5.38;;;;;;;;;;1045349;27;100236;-49
2021/09/24 08:16:13;;;;;;;10.32;5.82;;;;;;;;;;1044142;27;101466;-50
2021/09/24 08:16:44;;;;;;;9.27;5.00;;;;;;;;;;1045741;27;99894;-45
2021/09/24 08:17:15;;;;;;;7.72;5.38;;;;;;;;;;1045207;27;100515;-45
2021/09/24 08:17:46;;;;;;;9.77;5.68;;;;;;;;;;1049504;27;100299;-46
2021/09/24 08:18:16;;;;;;;6.38;4.90;;;;;;;;;;1048936;27;100396;-46
2021/09/24 08:18:47;;;;;;;12.52;5.13;;;;;;;;;;1045778;27;100151;-45
2021/09/24 08:19:18;;;;;;;10.80;5.47;;;;;;;;;;1044367;27;100322;-49
2021/09/24 08:19:49;;;;;;;15.57;5.97;;;;;;;;;;1045237;27;100227;-51
2021/09/24 08:20:20;;;;;;;10.25;5.68;;;;;;;;;;1043987;27;100402;-50
2021/09/24 08:20:52;;;;;;;9.88;5.55;;;;;;;;;;1049797;27;99891;-45
2021/09/24 08:21:23;;;;;;;8.75;5.93;;;;;;;;;;1048831;27;100268;-45
2021/09/24 08:21:54;;;;;;;10.20;5.43;;;;;;;;;;1045687;27;100237;-49
2021/09/24 08:22:26;;;;;;;15.75;5.68;;;;;;;;;;1044215;27;100087;-45
2021/09/24 08:22:56;;;;;;;9.00;5.43;;;;;;;;;;1045770;27;100041;-44
2021/09/24 08:23:28;;;;;;;9.30;5.50;;;;;;;;;;1044470;27;100693;-47
2021/09/24 08:23:58;;;;;;;12.20;5.82;;;;;;;;;;1045308;27;100208;-45
2021/09/24 08:24:29;;;;;;;10.63;5.30;;;;;;;;;;1035369;28;100645;-44
2021/09/24 13:26:13;;;;;;;8.95;4.72;;;;;;;;;;487693;27;28704256;-50
2021/09/24 13:26:44;;;;;;;6.30;4.88;;;;;;;;;;1057600;27;100140;-50
2021/09/24 13:27:15;;;;;;;7.40;5.03;;;;;;;;;;1056520;27;100079;-49
2021/09/24 13:27:46;;;;;;;7.47;5.00;;;;;;;;;;1057694;27;100105;-52
2021/09/24 13:28:18;;;;;;;6.90;5.25;;;;;;;;;;1056038;27;103145;-50
2021/09/24 13:28:49;;;;;;;12.00;4.95;;;;;;;;;;1057599;27;100244;-51
2021/09/24 13:29:20;;;;;;;31.50;5.63;;;;;;;;;;1056422;27;100518;-48
2021/09/24 13:29:51;;;;;;;11.30;4.88;;;;;;;;;;1052645;27;100185;-47
2021/09/24 13:30:22;;;;;;;8.50;4.65;;;;;;;;;;1042850;27;100659;-51
2021/09/24 13:30:53;;;;;;;7.30;4.85;;;;;;;;;;1044416;27;100042;-51
2021/09/24 13:31:24;;;;;;;13.95;4.88;;;;;;;;;;1043545;27;100651;-51
2021/09/24 13:31:56;;;;;;;7.43;5.45;;;;;;;;;;1049573;27;100204;-47
2021/09/24 13:32:26;;;;;;;7.32;5.32;;;;;;;;;;1056283;27;101752;-48
2021/09/24 13:32:57;;;;;;;8.77;4.90;;;;;;;;;;1057123;27;100235;-47
2021/09/24 13:33:28;;;;;;;9.82;5.63;;;;;;;;;;1043063;27;100663;-47
2021/09/24 13:33:59;;;;;;;9.73;4.90;;;;;;;;;;1044608;27;100410;-48
2021/09/24 13:34:31;;;;;;;6.43;5.20;;;;;;;;;;1043533;27;100334;-52
2021/09/24 13:35:03;;;;;;;6.60;4.93;;;;;;;;;;1049324;27;99979;-47
2021/09/24 13:35:34;;;;;;;14.25;5.30;;;;;;;;;;1056585;27;100539;-53
2021/09/24 13:36:05;;;;;;;7.30;4.95;;;;;;;;;;1057955;27;99896;-52
2021/09/24 13:36:37;;;;;;;7.95;4.85;;;;;;;;;;1056388;27;100410;-47
2021/09/24 13:37:08;;;;;;;8.70;4.88;;;;;;;;;;1057296;27;99958;-51
2021/09/24 13:37:39;;;;;;;9.25;4.88;;;;;;;;;;1056172;27;101482;-52
2021/09/24 13:38:11;;;;;;;6.30;5.25;;;;;;;;;;1057440;27;100155;-54
2021/09/24 13:38:42;;;;;;;8.48;5.13;;;;;;;;;;1055837;27;101407;-48
2021/09/24 13:39:13;;;;;;;12.70;5.03;;;;;;;;;;1057898;27;100026;-52
2021/09/24 13:39:43;;;;;;;7.65;5.25;;;;;;;;;;1056705;27;100423;-50
2021/09/24 13:40:14;;;;;;;9.57;5.18;;;;;;;;;;1058031;27;100085;-50
2021/09/24 13:40:45;;;;;;;9.70;5.18;;;;;;;;;;1056432;27;100257;-51
2021/09/24 13:41:16;;;;;;;9.57;5.05;;;;;;;;;;1057152;27;100122;-50
2021/09/24 13:41:47;;;;;;;9.55;4.90;;;;;;;;;;1056408;27;100443;-47
2021/09/24 13:42:18;;;;;;;10.57;4.80;;;;;;;;;;1057144;27;100175;-50
2021/09/24 13:42:48;;;;;;;9.98;5.25;;;;;;;;;;1051948;27;101228;-49
2021/09/24 13:43:19;;;;;;;6.53;4.68;;;;;;;;;;1057155;27;100184;-48
2021/09/24 13:43:50;;;;;;;10.60;4.85;;;;;;;;;;1056277;27;100358;-50
2021/09/24 13:44:22;;;;;;;5.95;4.68;;;;;;;;;;1057760;27;100025;-46
2021/09/24 13:44:52;;;;;;;9.93;5.63;;;;;;;;;;1051254;27;100736;-49
2021/09/24 13:45:23;;;;;;;8.50;5.03;;;;;;;;;;1053073;27;99936;-46
2021/09/24 13:45:54;;;;;;;6.60;5.05;;;;;;;;;;1042698;27;100433;-48
2021/09/24 13:46:25;;;;;;;7.40;5.57;;;;;;;;;;1044503;27;100072;-48
2021/09/24 13:46:56;;;;;;;12.85;5.65;;;;;;;;;;1047141;27;100848;-47
2021/09/24 13:47:38;;;;;;;11.32;5.60;;;;;;;;;;1052326;27;99947;-49
2021/09/24 13:48:20;;;;;;;9.20;5.88;;;;;;;;;;1042598;27;100503;-47
2021/09/24 13:48:52;;;;;;;14.65;5.75;;;;;;;;;;1047689;27;100137;-50
2021/09/24 13:49:23;;;;;;;6.20;5.43;;;;;;;;;;1047521;27;100511;-47
2021/09/24 13:50:05;;;;;;;6.63;5.20;;;;;;;;;;1052891;27;100077;-49
2021/09/24 13:50:37;;;;;;;6.35;5.22;;;;;;;;;;1056437;27;101190;-49
2021/09/24 13:51:08;;;;;;;10.02;5.55;;;;;;;;;;1057635;27;100033;-45
2021/09/24 13:51:39;;;;;;;7.88;5.15;;;;;;;;;;1056735;27;100378;-49
2021/09/24 13:52:10;;;;;;;11.25;5.15;;;;;;;;;;1057687;27;100065;-46
2021/09/24 13:52:41;;;;;;;9.07;5.15;;;;;;;;;;1056679;27;100799;-48
2021/09/24 13:53:14;;;;;;;8.45;5.47;;;;;;;;;;1057084;27;100259;-48
2021/09/24 13:53:45;;;;;;;7.57;5.22;;;;;;;;;;1056123;27;101529;-51
2021/09/24 13:54:17;;;;;;;7.72;5.00;;;;;;;;;;1057545;27;99898;-48
2021/09/24 13:54:48;;;;;;;9.80;5.25;;;;;;;;;;1052644;27;101887;-47
2021/09/24 13:55:19;;;;;;;11.88;5.50;;;;;;;;;;1057159;27;99930;-48
2021/09/24 13:55:50;;;;;;;5.88;4.88;;;;;;;;;;1056070;27;100336;-49
2021/09/24 13:56:21;;;;;;;12.40;5.35;;;;;;;;;;1057547;27;100034;-51
2021/09/24 13:56:52;;;;;;;11.25;5.20;;;;;;;;;;1056109;27;101542;-50
2021/09/24 13:57:25;;;;;;;9.50;5.93;;;;;;;;;;1057789;27;99939;-49
2021/09/24 13:57:56;;;;;;;13.45;5.50;;;;;;;;;;1056509;27;100435;-47
2021/09/24 13:58:27;;;;;;;10.50;5.47;;;;;;;;;;1056580;27;99863;-49
2021/09/24 13:58:58;;;;;;;9.60;5.35;;;;;;;;;;1055612;27;100542;-47
2021/09/24 13:59:29;;;;;;;6.78;4.95;;;;;;;;;;1056304;27;100067;-52
2021/09/24 13:59:59;;;;;;;16.88;4.82;;;;;;;;;;1054997;27;101740;-48
2021/09/24 14:00:31;;;;;;;7.05;5.10;;;;;;;;;;1056590;27;100107;-51
2021/09/24 14:01:02;;;;;;;10.18;5.20;;;;;;;;;;1055589;27;101954;-49
2021/09/24 14:01:33;;;;;;;9.02;5.03;;;;;;;;;;1055537;27;100308;-50
2021/09/24 14:02:04;;;;;;;10.90;5.80;;;;;;;;;;1056089;27;100698;-49
2021/09/24 14:02:35;;;;;;;8.07;4.78;;;;;;;;;;1055808;27;100264;-47